ADDS METAR Data INFO
IDs: Format: Raw Decoded Include TAF

Data at: 0747 UTC 21 Jul 2018

PAPO 210656Z AUTO 18016KT 10SM BKN005 OVC014 09/08 A3018 RMK AO2 SLP220 T00890078
PAPO 210649Z AUTO 18015KT 10SM BKN005 OVC014 09/08 A3018 RMK AO2
PAPO 210639Z AUTO 18016KT 10SM SCT005 OVC014 09/08 A3018 RMK AO2
PAPO 210556Z AUTO 19015KT 6SM BR OVC005 09/08 A3018 RMK AO2 SLP220 T00890078 10089 20083 57000
PAPO 210456Z AUTO 20017KT 10SM OVC005 09/08 A3018 RMK AO2 SLP220 T00890078
PAPO 210356Z AUTO 20015KT 10SM OVC005 09/08 A3019 RMK AO2 SLP221 T00890078
PAPO 210256Z AUTO 20016KT 8SM OVC005 09/08 A3018 RMK AO2 SLP221 T00890078 51006
PAPO 210156Z AUTO 20015KT 10SM OVC005 09/08 A3018 RMK AO2 SLP219 T00890078
PAPO 210123Z AUTO 21016KT 10SM BKN005 OVC011 09/08 A3018 RMK AO2
PAPO 210041Z AUTO 20016KT 10SM SCT005 OVC011 09/07 A3017 RMK AO2
PAPO 202356Z AUTO 21018KT 10SM OVC005 08/07 A3016 RMK AO2 SLP214 60000 T00830072 10089 20083 51006
PAPO 202256Z AUTO 20019KT 8SM OVC005 08/08 A3016 RMK AO2 SLP213 T00830078
PAPO 202156Z AUTO 20018KT 6SM BR OVC005 08/08 A3016 RMK AO2 CIG 003V007 SLP211 T00830078
PAPO 202146Z AUTO 21016KT 10SM OVC005 09/08 A3016 RMK AO2 CIG 003V006
PAPO 202103Z AUTO 20016KT 10SM OVC003 09/08 A3015 RMK AO2
PAPO 202056Z AUTO 20016KT 10SM OVC005 09/08 A3015 RMK AO2 SLP208 60000 T00890083 53001
PAPO 201956Z AUTO 20017KT 5SM BR OVC005 09/08 A3014 RMK AO2 CIG 003V007 SLP206 T00890083
PAPO 201918Z AUTO 20017KT 3SM BR OVC005 08/08 A3013 RMK AO2 CIG 003V008
PAPO 201856Z AUTO 20016KT 10SM OVC007 09/08 A3014 RMK AO2 RAE43 CIG 006V010 SLP206 P0000 T00890078
PAPO 201824Z AUTO 21015KT 10SM -RA OVC007 09/08 A3014 RMK AO2 P0000
PAPO 201756Z AUTO 19014KT 10SM -RA OVC005 09/08 A3014 RMK AO2 RAB54 SLP207 P0000 60000 T00890078 10089 20078 56004
PAPO 201656Z AUTO 18014KT 4SM BR OVC003 08/08 A3014 RMK AO2 RAE03 SLP207 P0000 T00830078
PAPO 201633Z AUTO 18015KT 4SM BR OVC003 08/08 A3014 RMK AO2 RAE03 P0000
PAPO 201614Z AUTO 18015KT 2 1/2SM BR OVC003 08/08 A3015 RMK AO2 RAE03 P0000
PAPO 201556Z AUTO 18014KT 3SM -RA BR OVC005 08/08 A3015 RMK AO2 SLP209 P0000 T00830078
PAPO 201541Z AUTO 19014KT 6SM -RA BR BKN005 OVC029 08/07 A3015 RMK AO2 P0000
PAPO 201532Z AUTO 18014KT 9SM -RA SCT005 OVC029 08/07 A3015 RMK AO2 P0000
PAPO 201456Z AUTO 18013KT 10SM -RA BKN022 OVC027 08/06 A3016 RMK AO2 SLP211 P0000 60000 T00830056 58007
PAPO 201418Z AUTO 19014KT 10SM OVC028 09/03 A3016 RMK AO2 RAE15 P0000
PAPO 201356Z AUTO 18012KT 10SM -RA OVC030 09/03 A3017 RMK AO2 RAB52 SLP215 P0000 T00890033
PAPO 201352Z AUTO 18012KT 10SM -RA OVC030 09/03 A3017 RMK AO2 RAB52 P0000
PAPO 201313Z AUTO 18010KT 10SM BKN028 BKN034 OVC048 09/01 A3018 RMK AO2
PAPO 201256Z AUTO 17010KT 10SM BKN034 OVC050 09/01 A3018 RMK AO2 SLP218 T00890006
PAPO 201156Z AUTO 16008KT 10SM OVC050 09/02 A3018 RMK AO2 SLP221 T00890022 10089 20067 58008
PAPO 201056Z AUTO 15006KT 10SM OVC055 08/03 A3019 RMK AO2 SLP222 T00830033
PAPO 200556Z AUTO 31003KT 10SM CLR 07/02 A3023 RMK AO2 SLP237 T00720017 10083 20072 58006
PAPO 200456Z AUTO 36004KT 10SM CLR 08/02 A3024 RMK AO2 SLP239 T00780022
PAPO 200256Z AUTO VRB04KT 10SM CLR 08/02 A3025 RMK AO2 SLP242 T00780022 50001
PAPO 200156Z AUTO 35005KT 10SM CLR 08/02 A3025 RMK AO2 SLP243 T00780017
PAPO 200056Z AUTO 30006KT 10SM FEW021 08/02 A3025 RMK AO2 SLP243 T00830017
PAPO 192356Z AUTO 31005KT 10SM CLR 08/02 A3025 RMK AO2 SLP242 T00780017 10078 20056 51009
PAPO 192341Z AUTO 36005KT 10SM SCT020 08/01 A3024 RMK AO2
PAPO 192313Z AUTO 31004KT 10SM BKN020 07/01 A3024 RMK AO2
PAPO 192256Z AUTO VRB04KT 10SM FEW020 07/02 A3024 RMK AO2 SLP239 T00720017
PAPO 192156Z AUTO 33005KT 10SM SCT022 07/01 A3023 RMK AO2 SLP236 T00720011
PAPO 192140Z AUTO 33004KT 10SM BKN022 07/01 A3022 RMK AO2
PAPO 192116Z AUTO VRB03KT 10SM SCT020 07/01 A3022 RMK AO2
PAPO 192056Z AUTO 31005KT 10SM OVC020 07/01 A3022 RMK AO2 SLP232 T00670011 51015
PAPO 191956Z AUTO 33006KT 10SM BKN020 07/02 A3020 RMK AO2 SLP227 T00670017